Time;durP1;ratioP1;P1;durP2;ratioP2;P2;SDS_P1;SDS_P2;PMS_P1;PMS_P2;Temp;Humidity;BMP_temperature;BMP_pressure;BME280_temperature;BME280_humidity;BME280_pressure;Samples;Min_cycle;Max_cycle;Signal;HPM_P1;HPM_P2
2022/05/11 00:00:54;;;;;;;1.80;1.17;;;18.00;56.80;;;;;;5056800;28;20465;-64
2022/05/11 00:03:25;;;;;;;1.13;0.97;;;18.00;58.90;;;;;;5059535;28;20464;-63
2022/05/11 00:05:57;;;;;;;1.13;0.70;;;18.20;60.80;;;;;;5059927;28;20429;-63
2022/05/11 00:08:28;;;;;;;1.07;0.90;;;18.30;59.30;;;;;;5059708;28;20589;-63
2022/05/11 00:10:59;;;;;;;0.77;0.77;;;18.20;58.00;;;;;;5052013;28;20435;-62
2022/05/11 00:13:31;;;;;;;1.00;0.90;;;18.30;60.00;;;;;;5056552;28;20483;-62
2022/05/11 00:16:02;;;;;;;1.30;1.20;;;18.40;59.60;;;;;;5059776;28;21194;-63
2022/05/11 00:18:33;;;;;;;1.10;1.00;;;18.20;59.60;;;;;;5056951;28;20468;-62
2022/05/11 00:21:04;;;;;;;1.40;1.30;;;18.30;60.50;;;;;;5053637;28;20453;-64
2022/05/11 00:23:35;;;;;;;1.00;1.00;;;18.40;60.80;;;;;;5059706;28;20667;-63
2022/05/11 00:26:06;;;;;;;0.73;0.70;;;18.30;61.40;;;;;;5060286;28;20452;-62
2022/05/11 00:28:39;;;;;;;3.47;0.90;;;18.40;60.80;;;;;;5059301;28;20595;-63
2022/05/11 00:31:10;;;;;;;0.73;0.73;;;18.40;59.80;;;;;;5059911;28;20464;-63
2022/05/11 00:33:41;;;;;;;1.10;0.87;;;18.40;61.80;;;;;;5055702;28;20471;-63
2022/05/11 00:36:13;;;;;;;1.80;1.07;;;18.40;61.00;;;;;;5058428;28;20470;-63
2022/05/11 00:38:51;;;;;;;2.13;1.40;;;18.20;59.80;;;;;;5062296;28;20456;-63
2022/05/11 00:41:22;;;;;;;1.43;1.07;;;18.10;59.50;;;;;;5061577;28;20439;-62
2022/05/11 00:43:59;;;;;;;1.00;0.97;;;18.00;58.80;;;;;;5065556;28;20459;-63
2022/05/11 00:46:36;;;;;;;2.53;0.90;;;17.90;62.30;;;;;;5057808;28;20469;-63
2022/05/11 00:52:01;;;;;;;1.33;1.23;;;17.70;61.60;;;;;;5063912;28;20464;-63
2022/05/11 00:54:36;;;;;;;0.97;0.80;;;17.50;65.50;;;;;;5063475;28;21025;-67
2022/05/11 00:57:13;;;;;;;3.13;1.07;;;17.50;66.40;;;;;;5064270;28;20437;-66
2022/05/11 00:59:47;;;;;;;0.70;0.70;;;17.60;63.30;;;;;;5061871;28;20456;-66
2022/05/11 01:02:22;;;;;;;1.53;0.83;;;17.50;65.00;;;;;;5048937;28;20426;-66
2022/05/11 01:05:00;;;;;;;2.47;0.97;;;17.60;63.70;;;;;;5063169;28;20460;-65
2022/05/11 01:07:32;;;;;;;1.00;0.90;;;17.50;65.90;;;;;;5063894;28;20481;-65
2022/05/11 01:10:03;;;;;;;0.90;0.90;;;17.40;66.90;;;;;;5063021;28;20438;-64
2022/05/11 01:12:38;;;;;;;1.60;0.70;;;17.30;68.00;;;;;;5064050;28;20456;-65
2022/05/11 01:15:13;;;;;;;1.40;0.80;;;17.10;65.80;;;;;;5062537;28;20592;-65
2022/05/11 01:17:44;;;;;;;0.80;0.80;;;16.80;67.50;;;;;;5063486;28;20475;-63
2022/05/11 01:20:17;;;;;;;1.30;0.77;;;16.80;67.60;;;;;;5063949;28;20475;-62
2022/05/11 01:22:57;;;;;;;1.90;1.00;;;16.80;67.90;;;;;;5062689;28;20468;-63
2022/05/11 01:25:35;;;;;;;1.37;1.27;;;16.90;67.30;;;;;;5057899;28;20475;-62
2022/05/11 01:28:11;;;;;;;0.87;0.87;;;16.90;66.90;;;;;;5061674;28;20484;-64
2022/05/11 01:30:43;;;;;;;0.80;0.80;;;16.60;68.00;;;;;;5064633;28;20454;-63
2022/05/11 01:33:17;;;;;;;1.40;1.20;;;16.50;67.90;;;;;;5062303;28;20460;-64
2022/05/11 01:35:56;;;;;;;0.87;0.80;;;16.30;68.20;;;;;;5063539;28;20466;-64
2022/05/11 01:38:36;;;;;;;0.77;0.70;;;16.20;71.20;;;;;;5058277;28;20470;-63
2022/05/11 01:41:09;;;;;;;0.50;0.50;;;16.20;70.10;;;;;;5058906;28;20475;-63
2022/05/11 01:43:41;;;;;;;0.70;0.70;;;16.10;70.90;;;;;;5063204;28;20457;-63
2022/05/11 01:46:13;;;;;;;1.43;0.73;;;16.10;70.40;;;;;;5063016;28;20452;-63
2022/05/11 01:48:45;;;;;;;2.30;1.23;;;16.10;73.60;;;;;;5061761;28;20516;-62
2022/05/11 01:51:17;;;;;;;2.60;0.90;;;16.20;71.80;;;;;;5062590;28;20488;-62
2022/05/11 01:53:48;;;;;;;1.10;0.60;;;16.10;72.40;;;;;;5060225;28;20542;-62
2022/05/11 01:56:23;;;;;;;0.70;0.70;;;16.00;72.60;;;;;;5062822;28;20456;-62
2022/05/11 01:58:54;;;;;;;1.20;0.80;;;15.90;73.30;;;;;;5061713;28;20453;-62
2022/05/11 02:01:28;;;;;;;1.20;0.80;;;15.80;74.10;;;;;;5063044;28;20524;-62
2022/05/11 02:04:00;;;;;;;0.80;0.73;;;15.80;73.80;;;;;;5061935;28;20499;-62
2022/05/11 02:09:18;;;;;;;1.20;1.00;;;15.80;73.50;;;;;;5060067;28;20876;-63
2022/05/11 02:11:51;;;;;;;1.33;1.10;;;15.60;75.00;;;;;;5061523;28;20492;-63
2022/05/11 02:14:21;;;;;;;1.13;0.73;;;15.50;76.00;;;;;;5060452;28;20468;-62
2022/05/11 02:16:53;;;;;;;0.90;0.90;;;15.40;77.80;;;;;;5062126;28;20484;-63
2022/05/11 02:19:24;;;;;;;2.10;0.80;;;15.40;77.90;;;;;;5061918;28;20461;-62
2022/05/11 02:21:54;;;;;;;2.33;0.83;;;15.30;76.90;;;;;;5063272;28;20534;-62
2022/05/11 02:24:25;;;;;;;1.90;0.87;;;15.20;78.10;;;;;;5060841;28;20812;-62
2022/05/11 02:27:01;;;;;;;1.00;0.90;;;15.30;75.70;;;;;;5059130;28;20974;-62
2022/05/11 02:29:32;;;;;;;1.00;0.90;;;15.20;76.20;;;;;;5062757;28;20537;-62
2022/05/11 02:32:04;;;;;;;2.70;1.00;;;15.00;77.50;;;;;;5061008;28;20459;-62
2022/05/11 02:37:22;;;;;;;1.23;1.13;;;14.80;80.30;;;;;;5061699;28;20468;-62
2022/05/11 02:39:53;;;;;;;2.50;1.40;;;14.80;80.90;;;;;;5060163;28;20464;-62
2022/05/11 02:42:25;;;;;;;1.27;1.10;;;14.70;82.80;;;;;;5063077;28;20475;-62
2022/05/11 02:44:56;;;;;;;1.27;1.00;;;14.50;83.00;;;;;;5054234;28;20533;-62
2022/05/11 02:47:27;;;;;;;1.40;1.30;;;14.40;85.30;;;;;;5058344;28;20466;-63
2022/05/11 02:49:58;;;;;;;1.07;1.00;;;14.40;85.20;;;;;;5061725;28;20499;-63
2022/05/11 02:52:28;;;;;;;1.60;1.13;;;14.30;86.70;;;;;;5062288;28;20492;-63
2022/05/11 02:54:59;;;;;;;1.17;1.07;;;14.20;87.90;;;;;;5045927;28;20563;-62
2022/05/11 02:57:32;;;;;;;1.13;1.03;;;14.10;89.30;;;;;;5061607;28;20463;-62
2022/05/11 03:00:03;;;;;;;1.13;1.03;;;14.00;90.00;;;;;;5060746;28;20544;-63
2022/05/11 03:02:34;;;;;;;1.10;1.00;;;13.90;90.10;;;;;;5061464;28;20474;-64
2022/05/11 03:05:05;;;;;;;1.50;1.13;;;13.90;90.20;;;;;;5047466;28;20448;-63
2022/05/11 03:07:38;;;;;;;3.17;1.07;;;13.90;90.70;;;;;;5061935;28;20459;-63
2022/05/11 03:10:10;;;;;;;2.97;1.10;;;13.80;90.30;;;;;;5061544;28;20484;-64
2022/05/11 03:12:42;;;;;;;3.50;1.70;;;13.70;91.30;;;;;;5059761;28;20781;-63
2022/05/11 03:15:13;;;;;;;2.00;0.97;;;13.60;91.60;;;;;;5061614;28;20487;-63
2022/05/11 03:17:44;;;;;;;3.30;1.07;;;13.60;90.90;;;;;;5060557;28;20518;-63
2022/05/11 03:20:15;;;;;;;1.63;1.40;;;13.50;91.60;;;;;;5062429;28;20436;-63
2022/05/11 03:22:51;;;;;;;1.30;1.20;;;13.40;91.70;;;;;;5062317;28;20451;-63
2022/05/11 03:25:23;;;;;;;3.03;1.10;;;13.30;92.20;;;;;;5061053;28;20567;-62
2022/05/11 03:27:55;;;;;;;3.93;1.00;;;13.20;91.90;;;;;;5060070;28;20475;-63
2022/05/11 03:30:27;;;;;;;1.57;1.03;;;13.20;92.30;;;;;;5058203;28;20500;-62
2022/05/11 03:35:45;;;;;;;0.93;0.83;;;13.00;93.60;;;;;;5061411;28;20801;-64
2022/05/11 03:38:16;;;;;;;1.40;1.30;;;13.00;93.80;;;;;;5059348;28;20507;-65
2022/05/11 03:40:47;;;;;;;1.70;1.10;;;12.90;95.20;;;;;;5056764;28;20456;-64
2022/05/11 03:43:19;;;;;;;1.43;1.33;;;12.90;94.80;;;;;;5061068;28;20474;-64
2022/05/11 03:45:50;;;;;;;1.53;1.20;;;12.90;94.30;;;;;;5060530;28;20476;-64
2022/05/11 03:48:21;;;;;;;2.07;0.90;;;12.80;94.40;;;;;;5060514;28;20456;-63
2022/05/11 03:50:51;;;;;;;2.50;1.13;;;12.80;95.20;;;;;;5052205;28;20479;-61
2022/05/11 03:53:22;;;;;;;2.00;1.47;;;12.80;95.30;;;;;;5058821;28;20472;-62
2022/05/11 03:55:53;;;;;;;2.07;1.33;;;12.70;95.20;;;;;;5057062;28;20470;-63
2022/05/11 03:58:25;;;;;;;2.30;1.20;;;12.70;95.80;;;;;;5060883;28;20464;-62
2022/05/11 04:00:56;;;;;;;2.70;1.20;;;12.60;96.10;;;;;;5059172;28;20464;-63
2022/05/11 04:03:28;;;;;;;2.87;1.40;;;12.60;95.90;;;;;;5061274;28;21024;-62
2022/05/11 04:05:58;;;;;;;4.50;1.20;;;12.60;96.90;;;;;;5046922;28;20472;-62
2022/05/11 04:08:29;;;;;;;1.73;1.30;;;12.60;96.60;;;;;;5057375;28;20472;-62
2022/05/11 04:11:00;;;;;;;2.60;1.40;;;12.60;96.40;;;;;;5061743;28;20559;-63
2022/05/11 04:13:32;;;;;;;1.27;1.17;;;12.60;97.50;;;;;;5063904;28;20470;-64
2022/05/11 04:16:03;;;;;;;1.00;1.00;;;12.50;97.20;;;;;;5059305;28;20498;-63
2022/05/11 04:18:36;;;;;;;6.50;2.20;;;12.50;97.40;;;;;;5063065;28;20487;-63
2022/05/11 04:21:07;;;;;;;4.00;1.57;;;12.50;97.30;;;;;;5064150;28;20468;-63
2022/05/11 04:23:40;;;;;;;1.33;1.23;;;12.40;98.10;;;;;;5063264;28;20963;-64
2022/05/11 04:26:12;;;;;;;3.10;1.70;;;12.30;97.80;;;;;;5064585;28;20478;-62
2022/05/11 04:28:45;;;;;;;1.63;1.10;;;12.20;99.00;;;;;;5063414;28;20475;-62
2022/05/11 04:31:16;;;;;;;2.60;1.73;;;12.20;99.70;;;;;;5064691;28;20484;-63
2022/05/11 04:33:47;;;;;;;3.50;2.00;;;12.20;99.30;;;;;;5064180;28;20448;-63
2022/05/11 04:36:18;;;;;;;3.10;1.83;;;12.10;99.40;;;;;;5063433;28;20479;-62
2022/05/11 04:38:49;;;;;;;1.73;1.63;;;12.10;99.60;;;;;;5064498;28;20468;-62
2022/05/11 04:41:19;;;;;;;3.77;1.80;;;12.10;99.80;;;;;;5064500;28;20456;-62
2022/05/11 04:43:56;;;;;;;4.53;1.50;;;12.20;99.90;;;;;;5063481;28;20456;-62
2022/05/11 04:46:27;;;;;;;1.80;1.20;;;12.20;99.90;;;;;;5060745;28;20479;-63
2022/05/11 04:49:16;;;;;;;2.10;1.70;;;12.20;99.80;;;;;;5056525;28;20490;-62
2022/05/11 04:51:48;;;;;;;1.80;1.70;;;12.20;99.90;;;;;;5063492;28;20488;-62
2022/05/11 04:54:19;;;;;;;1.50;1.33;;;12.20;99.80;;;;;;5056793;28;20461;-63
2022/05/11 04:56:50;;;;;;;1.67;1.57;;;12.20;99.90;;;;;;5064636;28;20460;-63
2022/05/11 04:59:25;;;;;;;2.23;1.47;;;12.10;99.90;;;;;;5064479;28;20455;-63
2022/05/11 05:01:59;;;;;;;1.80;1.27;;;12.10;99.90;;;;;;5064686;28;20527;-63
2022/05/11 05:04:30;;;;;;;1.73;1.37;;;12.10;99.90;;;;;;5064762;28;20503;-63
2022/05/11 05:07:01;;;;;;;3.70;1.67;;;12.10;99.90;;;;;;5064130;28;20456;-62
2022/05/11 05:09:32;;;;;;;1.50;1.40;;;12.10;99.90;;;;;;5062602;28;20456;-62
2022/05/11 05:12:02;;;;;;;4.00;1.80;;;12.10;99.90;;;;;;5062937;28;20468;-63
2022/05/11 05:14:35;;;;;;;1.97;1.63;;;12.10;99.90;;;;;;5062414;28;20472;-62
2022/05/11 05:17:08;;;;;;;1.97;1.57;;;12.10;99.90;;;;;;5062452;28;20487;-62
2022/05/11 05:19:39;;;;;;;3.57;1.43;;;12.00;99.90;;;;;;5062761;28;20456;-63
2022/05/11 05:22:10;;;;;;;1.43;1.30;;;11.90;99.90;;;;;;5063064;28;20453;-62
2022/05/11 05:24:41;;;;;;;2.33;1.60;;;11.90;99.90;;;;;;5063025;28;20460;-62
2022/05/11 05:27:13;;;;;;;3.67;1.23;;;11.80;99.90;;;;;;5057386;28;20452;-63
2022/05/11 05:32:37;;;;;;;2.00;1.60;;;11.80;99.90;;;;;;5063892;28;20459;-64
2022/05/11 05:35:10;;;;;;;1.67;1.40;;;11.80;99.90;;;;;;5063680;28;20454;-63
2022/05/11 05:37:41;;;;;;;1.60;1.50;;;11.70;99.90;;;;;;5065108;28;20806;-63
2022/05/11 05:40:12;;;;;;;2.67;1.60;;;11.60;99.90;;;;;;5068910;28;20762;-63
2022/05/11 05:42:44;;;;;;;1.90;1.37;;;11.60;99.90;;;;;;5063785;28;20451;-63
2022/05/11 05:45:16;;;;;;;2.70;1.57;;;11.50;99.90;;;;;;5063984;28;20577;-62
2022/05/11 05:47:47;;;;;;;2.50;1.30;;;11.50;99.90;;;;;;5063525;28;21227;-62
2022/05/11 05:50:19;;;;;;;3.20;1.67;;;11.40;99.90;;;;;;5063448;28;20805;-63
2022/05/11 05:52:52;;;;;;;2.60;1.40;;;11.30;99.90;;;;;;5063695;28;20455;-62
2022/05/11 05:55:24;;;;;;;1.80;1.40;;;11.20;99.90;;;;;;5063177;28;20938;-62
2022/05/11 05:57:55;;;;;;;1.77;1.67;;;11.10;99.90;;;;;;5063055;28;20519;-62
2022/05/11 06:00:29;;;;;;;3.20;1.30;;;11.00;99.90;;;;;;5063504;28;20444;-62
2022/05/11 06:03:00;;;;;;;5.90;2.03;;;11.00;99.90;;;;;;5063398;28;20547;-62
2022/05/11 06:05:32;;;;;;;2.37;1.93;;;10.90;99.90;;;;;;5063154;28;20448;-62
2022/05/11 06:08:03;;;;;;;7.50;2.17;;;10.80;99.90;;;;;;5063561;28;20531;-62
2022/05/11 06:10:35;;;;;;;1.97;1.30;;;10.80;99.90;;;;;;5062379;28;20496;-62
2022/05/11 06:13:06;;;;;;;2.33;2.13;;;10.60;99.90;;;;;;5068932;28;20516;-62
2022/05/11 06:15:39;;;;;;;3.63;1.63;;;10.50;99.90;;;;;;5063437;28;20467;-62
2022/05/11 06:18:11;;;;;;;3.30;1.53;;;10.40;99.90;;;;;;5062637;28;20543;-62
2022/05/11 06:20:42;;;;;;;2.63;1.40;;;10.40;99.90;;;;;;5063376;28;20444;-63
2022/05/11 06:23:13;;;;;;;2.77;1.70;;;10.40;99.90;;;;;;5063390;28;20788;-62
2022/05/11 06:25:43;;;;;;;3.53;2.03;;;10.40;99.90;;;;;;5062926;28;20457;-62
2022/05/11 06:28:14;;;;;;;3.87;2.07;;;10.30;99.90;;;;;;5062439;28;20763;-63
2022/05/11 06:31:06;;;;;;;2.10;1.70;;;10.20;99.90;;;;;;5056801;28;20491;-63
2022/05/11 06:33:46;;;;;;;2.67;2.03;;;10.20;99.90;;;;;;5062181;28;20440;-63
2022/05/11 06:36:17;;;;;;;4.80;2.40;;;10.20;99.90;;;;;;5062831;28;21175;-63
2022/05/11 06:38:48;;;;;;;2.77;2.13;;;10.20;99.90;;;;;;5045375;28;20467;-62
2022/05/11 06:41:21;;;;;;;3.27;2.20;;;10.30;99.90;;;;;;5063484;28;20461;-62
2022/05/11 06:43:52;;;;;;;2.03;1.70;;;10.30;99.90;;;;;;5062622;28;20452;-62
2022/05/11 06:46:25;;;;;;;3.00;1.97;;;10.40;99.90;;;;;;5062753;28;20460;-61
2022/05/11 06:48:56;;;;;;;1.57;1.47;;;10.40;99.90;;;;;;5062020;28;20449;-62
2022/05/11 06:51:27;;;;;;;1.90;1.63;;;10.40;99.90;;;;;;5062864;28;20494;-62
2022/05/11 06:59:34;;;;;;;3.00;1.87;;;10.30;99.90;;;;;;5057533;28;20492;-62
2022/05/11 07:02:07;;;;;;;2.63;1.60;;;10.40;99.90;;;;;;5061416;28;20486;-62
2022/05/11 07:04:38;;;;;;;1.63;1.50;;;10.30;99.90;;;;;;5060825;28;20551;-62
2022/05/11 07:07:09;;;;;;;2.40;1.40;;;10.30;99.90;;;;;;5049008;28;20452;-62
2022/05/11 07:09:40;;;;;;;2.07;1.60;;;10.40;99.90;;;;;;5061849;28;20566;-62
2022/05/11 07:12:21;;;;;;;4.00;1.70;;;10.40;99.90;;;;;;5062705;28;20477;-61
2022/05/11 07:14:54;;;;;;;2.40;1.60;;;10.40;99.90;;;;;;5062194;28;20538;-62
2022/05/11 07:17:35;;;;;;;1.57;1.47;;;10.40;99.90;;;;;;5061775;28;20476;-62
2022/05/11 07:20:09;;;;;;;6.43;1.87;;;10.40;99.90;;;;;;5066663;28;20573;-62
2022/05/11 07:22:41;;;;;;;2.57;1.53;;;10.40;99.90;;;;;;5062021;28;20452;-62
2022/05/11 07:25:16;;;;;;;2.93;1.50;;;10.40;99.90;;;;;;5061449;28;20456;-62
2022/05/11 07:27:47;;;;;;;3.93;1.47;;;10.40;99.90;;;;;;5061586;28;20459;-62
2022/05/11 07:30:22;;;;;;;2.87;2.20;;;10.50;99.90;;;;;;5062089;28;20445;-62
2022/05/11 07:33:02;;;;;;;2.67;1.60;;;10.50;99.90;;;;;;5061925;28;20518;-62
2022/05/11 07:35:34;;;;;;;2.20;1.57;;;10.60;99.90;;;;;;5061474;28;20460;-62
2022/05/11 07:38:09;;;;;;;3.90;1.67;;;10.60;99.90;;;;;;5061940;28;20460;-63
2022/05/11 07:40:40;;;;;;;2.00;1.67;;;10.50;99.90;;;;;;5061264;28;20539;-62
2022/05/11 07:43:11;;;;;;;3.00;1.97;;;10.40;99.90;;;;;;5061853;28;20924;-62
2022/05/11 07:45:44;;;;;;;1.97;1.53;;;10.20;99.90;;;;;;5061953;28;20467;-63
2022/05/11 07:48:19;;;;;;;4.73;1.80;;;10.10;99.90;;;;;;5061223;28;20444;-63
2022/05/11 07:50:50;;;;;;;2.83;1.57;;;10.10;99.90;;;;;;5061860;28;20856;-62
2022/05/11 07:53:24;;;;;;;2.43;1.50;;;9.90;99.90;;;;;;5060664;28;20483;-63
2022/05/11 08:01:26;;;;;;;2.10;1.90;;;9.60;99.90;;;;;;5061595;28;20440;-62
2022/05/11 08:03:59;;;;;;;3.47;1.37;;;9.50;99.90;;;;;;5061840;28;20440;-62
2022/05/11 08:06:30;;;;;;;4.37;1.80;;;9.40;99.90;;;;;;5060495;28;20879;-62
2022/05/11 08:09:00;;;;;;;2.07;1.60;;;9.30;99.90;;;;;;5059304;28;20464;-62
2022/05/11 08:11:31;;;;;;;1.77;1.50;;;9.20;99.90;;;;;;5063475;28;20504;-63
2022/05/11 08:14:02;;;;;;;2.37;1.73;;;9.20;99.90;;;;;;5060516;28;20828;-63
2022/05/11 08:16:33;;;;;;;1.57;1.47;;;9.00;99.90;;;;;;5060530;28;20491;-64
2022/05/11 08:19:05;;;;;;;2.75;1.70;;;9.00;99.90;;;;;;5058832;28;20464;-62
2022/05/11 08:21:36;;;;;;;2.13;1.33;;;8.90;99.90;;;;;;5061518;28;20205;-62
2022/05/11 08:24:10;;;;;;;2.53;1.58;;;8.80;99.90;;;;;;5060405;28;20202;-62
2022/05/11 08:26:41;;;;;;;2.20;2.00;;;8.70;99.90;;;;;;5060527;28;20216;-63
2022/05/11 08:33:18;;;;;;;3.60;1.92;;;8.60;99.90;;;;;;5060802;28;20206;-62
2022/05/11 08:34:52;;;;;;;2.28;1.83;;;8.40;99.90;;;;;;5060789;28;20202;-63
2022/05/11 08:37:23;;;;;;;1.63;1.50;;;8.40;99.90;;;;;;5061671;28;20209;-62
2022/05/11 08:39:54;;;;;;;1.90;1.75;;;8.40;99.90;;;;;;5059918;28;20206;-63
2022/05/11 08:42:31;;;;;;;1.80;1.70;;;8.30;99.90;;;;;;5060780;28;20209;-63
2022/05/11 08:45:03;;;;;;;1.80;1.70;;;8.30;99.90;;;;;;5064513;28;20236;-63
2022/05/11 08:47:45;;;;;;;2.00;1.80;;;8.20;99.90;;;;;;5061686;28;20198;-63
2022/05/11 08:50:19;;;;;;;2.08;1.60;;;8.20;99.90;;;;;;5060432;28;20201;-62
2022/05/11 08:52:56;;;;;;;1.90;1.80;;;8.10;99.90;;;;;;5061643;28;20220;-63
2022/05/11 08:55:34;;;;;;;2.55;1.85;;;8.10;99.90;;;;;;5060643;28;20220;-63
2022/05/11 08:58:07;;;;;;;2.58;1.77;;;8.10;99.90;;;;;;5056576;28;20209;-62
2022/05/11 09:00:40;;;;;;;3.85;2.33;;;8.00;99.90;;;;;;5063776;28;20206;-62
2022/05/11 09:03:21;;;;;;;1.85;1.70;;;7.90;99.90;;;;;;5064946;28;20216;-63
2022/05/11 09:05:56;;;;;;;2.15;1.95;;;7.80;99.90;;;;;;5064926;28;20210;-63
2022/05/11 09:08:27;;;;;;;3.13;1.95;;;7.70;99.90;;;;;;5063669;28;20200;-64
2022/05/11 09:10:58;;;;;;;2.90;2.20;;;7.70;99.90;;;;;;5064827;28;20198;-63
2022/05/11 09:13:29;;;;;;;2.28;1.90;;;7.70;99.90;;;;;;5051185;28;20236;-63
2022/05/11 09:16:02;;;;;;;2.70;2.28;;;7.60;99.90;;;;;;5064516;28;20274;-64
2022/05/11 09:18:40;;;;;;;2.20;2.03;;;7.60;99.90;;;;;;5064682;28;20221;-63
2022/05/11 09:21:25;;;;;;;2.75;2.25;;;7.60;99.90;;;;;;5063822;28;20205;-62
2022/05/11 09:24:22;;;;;;;2.55;2.00;;;7.50;99.90;;;;;;5061762;28;20206;-64
2022/05/11 09:27:07;;;;;;;2.47;2.25;;;7.50;99.90;;;;;;5061449;28;20198;-63
2022/05/11 09:29:42;;;;;;;2.40;2.15;;;7.50;99.90;;;;;;5062076;28;20201;-64
2022/05/11 09:32:29;;;;;;;2.30;2.10;;;7.60;99.90;;;;;;5062234;28;20358;-62
2022/05/11 09:35:25;;;;;;;4.90;2.05;;;7.70;99.90;;;;;;5055989;28;20216;-62
2022/05/11 09:38:05;;;;;;;3.25;2.38;;;7.80;99.90;;;;;;5064222;28;20210;-63
2022/05/11 09:40:55;;;;;;;1.80;1.70;;;7.90;99.90;;;;;;5062373;28;20240;-63
2022/05/11 09:43:36;;;;;;;2.40;2.20;;;8.00;99.90;;;;;;5053930;28;20205;-63
2022/05/11 09:46:22;;;;;;;4.00;2.00;;;8.10;99.90;;;;;;5063941;28;20509;-63
2022/05/11 09:49:01;;;;;;;2.42;2.00;;;8.20;99.90;;;;;;5063562;28;20461;-61
2022/05/11 09:51:38;;;;;;;5.70;2.35;;;8.20;99.90;;;;;;5063196;28;20206;-62
2022/05/11 09:54:23;;;;;;;1.98;1.45;;;8.20;99.90;;;;;;5061543;28;20225;-62
2022/05/11 09:57:06;;;;;;;5.30;2.00;;;8.20;99.90;;;;;;5062957;28;20212;-62
2022/05/11 09:59:39;;;;;;;2.10;1.90;;;8.20;99.90;;;;;;5062783;28;20210;-61
2022/05/11 10:02:34;;;;;;;3.65;2.20;;;8.30;99.90;;;;;;5061659;28;20205;-62
2022/05/11 10:05:08;;;;;;;2.53;2.25;;;8.30;99.90;;;;;;5052802;28;20210;-61
2022/05/11 10:07:44;;;;;;;2.83;1.63;;;8.20;99.90;;;;;;5055977;28;20245;-62
2022/05/11 10:10:24;;;;;;;3.20;2.30;;;8.10;99.90;;;;;;5045665;28;20201;-62
2022/05/11 10:13:01;;;;;;;2.30;2.10;;;8.10;99.90;;;;;;5062539;28;20259;-62
2022/05/11 10:24:36;;;;;;;3.17;2.30;;;7.80;99.90;;;;;;5053713;28;20415;-61
2022/05/11 10:27:15;;;;;;;2.05;1.90;;;7.80;99.90;;;;;;5055724;28;20208;-62
2022/05/11 10:29:59;;;;;;;2.40;2.28;;;7.70;99.90;;;;;;5062072;28;20216;-62
2022/05/11 10:32:42;;;;;;;5.97;2.60;;;7.70;99.90;;;;;;5060724;28;20206;-62
2022/05/11 10:35:17;;;;;;;2.80;2.03;;;7.70;99.90;;;;;;5061142;28;20210;-62
2022/05/11 10:38:08;;;;;;;3.05;2.53;;;7.70;99.90;;;;;;5055933;28;20205;-62
2022/05/11 10:40:48;;;;;;;2.90;2.70;;;7.80;99.90;;;;;;5061012;28;20209;-62
2022/05/11 10:43:36;;;;;;;2.85;2.50;;;7.80;99.90;;;;;;5061204;28;20206;-62
2022/05/11 10:46:32;;;;;;;2.65;2.45;;;7.70;99.90;;;;;;5062184;28;20288;-61
2022/05/11 10:49:36;;;;;;;3.30;2.20;;;7.60;99.90;;;;;;5061299;28;20201;-62
2022/05/11 10:52:23;;;;;;;4.90;2.88;;;7.50;99.90;;;;;;5029877;28;20649;-62
2022/05/11 10:55:06;;;;;;;2.50;2.23;;;7.60;99.90;;;;;;5061971;28;20216;-62
2022/05/11 10:57:50;;;;;;;3.40;3.10;;;7.60;99.90;;;;;;5063188;28;20455;-62
2022/05/11 11:00:32;;;;;;;8.55;2.92;;;7.50;99.90;;;;;;5062308;28;20544;-62
2022/05/11 11:03:40;;;;;;;3.92;2.83;;;7.40;99.90;;;;;;5060264;28;20217;-62
2022/05/11 11:09:29;;;;;;;3.15;2.30;;;7.20;99.90;;;;;;5046897;28;20218;-62
2022/05/11 11:12:09;;;;;;;2.75;2.20;;;7.20;99.90;;;;;;5058665;28;20213;-62
2022/05/11 11:14:45;;;;;;;3.50;3.15;;;7.20;99.90;;;;;;5062265;28;20233;-61
2022/05/11 11:17:21;;;;;;;2.80;2.60;;;7.10;99.90;;;;;;5062391;28;20530;-62
2022/05/11 11:19:54;;;;;;;4.25;2.72;;;7.00;99.90;;;;;;5062060;28;20212;-61
2022/05/11 11:22:25;;;;;;;3.15;2.85;;;6.90;99.90;;;;;;5061609;28;20212;-62
2022/05/11 11:25:24;;;;;;;5.07;2.63;;;6.90;99.90;;;;;;5061563;28;20210;-61
2022/05/11 11:28:08;;;;;;;4.38;3.97;;;6.90;99.90;;;;;;5062496;28;20201;-62
2022/05/11 11:30:40;;;;;;;5.85;3.40;;;6.80;99.90;;;;;;5061939;28;20220;-61
2022/05/11 11:33:24;;;;;;;4.47;3.38;;;6.80;99.90;;;;;;5061643;28;20225;-61
2022/05/11 11:35:58;;;;;;;4.05;2.97;;;6.80;99.90;;;;;;5073116;28;20241;-61
2022/05/11 11:38:32;;;;;;;5.03;3.03;;;6.60;99.90;;;;;;5062875;28;20244;-62
2022/05/11 11:41:16;;;;;;;3.45;3.15;;;6.60;99.90;;;;;;5061656;28;20194;-61
2022/05/11 11:43:53;;;;;;;3.13;2.45;;;6.50;99.90;;;;;;5053761;28;20236;-62
2022/05/11 11:46:33;;;;;;;3.00;2.75;;;6.50;99.90;;;;;;5046091;28;20185;-61
2022/05/11 11:49:09;;;;;;;4.20;3.70;;;6.40;99.90;;;;;;5061577;28;20238;-61
2022/05/11 11:51:58;;;;;;;5.15;4.15;;;6.40;99.90;;;;;;5062147;28;20255;-61
2022/05/11 11:54:47;;;;;;;3.05;2.70;;;6.40;99.90;;;;;;5044306;28;20225;-61
2022/05/11 11:57:32;;;;;;;3.35;3.05;;;6.40;99.90;;;;;;5061631;28;20274;-61
2022/05/11 12:00:06;;;;;;;4.30;3.08;;;6.40;99.90;;;;;;5060969;28;20205;-61
2022/05/11 12:02:42;;;;;;;4.57;3.10;;;6.50;99.90;;;;;;5060914;28;20201;-61
2022/05/11 12:05:29;;;;;;;3.20;2.90;;;6.50;99.90;;;;;;5061473;28;20342;-61
2022/05/11 12:16:43;;;;;;;3.22;3.03;;;6.60;99.90;;;;;;5062196;28;20248;-61
2022/05/11 12:19:17;;;;;;;4.85;3.53;;;6.50;99.90;;;;;;5060924;28;20221;-61
2022/05/11 12:21:58;;;;;;;3.40;3.10;;;6.50;99.90;;;;;;5060387;28;20217;-61
2022/05/11 12:24:31;;;;;;;2.75;2.55;;;6.50;99.90;;;;;;5060283;28;20205;-61
2022/05/11 12:27:08;;;;;;;3.40;3.13;;;6.40;99.90;;;;;;5061524;28;20213;-61
2022/05/11 12:29:57;;;;;;;3.50;3.30;;;6.40;99.90;;;;;;5060568;28;20193;-61
2022/05/11 12:32:33;;;;;;;3.47;3.08;;;6.30;99.90;;;;;;5061003;28;20240;-62
2022/05/11 12:35:12;;;;;;;3.20;2.95;;;6.30;99.90;;;;;;5065399;28;20228;-62
2022/05/11 12:37:44;;;;;;;3.17;2.83;;;6.40;99.90;;;;;;5064899;28;20673;-61
2022/05/11 12:40:19;;;;;;;3.30;3.00;;;6.40;99.90;;;;;;5064144;28;20206;-61
2022/05/11 12:42:53;;;;;;;4.90;2.85;;;6.50;99.90;;;;;;5066137;28;20230;-61
2022/05/11 12:45:27;;;;;;;3.50;3.17;;;6.50;99.90;;;;;;5065053;28;20214;-61
2022/05/11 12:47:59;;;;;;;4.40;3.17;;;6.50;99.90;;;;;;5048557;28;20190;-62
2022/05/11 12:50:33;;;;;;;3.40;3.10;;;6.60;99.90;;;;;;5065444;28;20186;-61
2022/05/11 12:53:24;;;;;;;3.97;3.60;;;6.60;99.90;;;;;;5065138;28;20228;-61
2022/05/11 12:56:07;;;;;;;4.57;3.10;;;6.70;99.90;;;;;;5064638;28;20633;-61
2022/05/11 12:58:45;;;;;;;3.00;2.80;;;6.70;99.90;;;;;;5064683;28;20232;-61
2022/05/11 13:01:18;;;;;;;3.65;3.35;;;6.70;99.90;;;;;;5065683;28;20220;-61
2022/05/11 13:03:49;;;;;;;5.03;3.30;;;6.70;99.90;;;;;;5063278;28;20234;-61
2022/05/11 13:06:31;;;;;;;3.63;3.33;;;6.70;99.90;;;;;;5055828;28;20210;-61
2022/05/11 13:09:08;;;;;;;3.65;3.33;;;6.80;99.90;;;;;;5062486;28;20206;-62
2022/05/11 13:11:40;;;;;;;3.88;3.50;;;6.90;99.90;;;;;;5064606;28;20614;-61
2022/05/11 13:14:17;;;;;;;4.80;4.40;;;7.00;99.90;;;;;;5063851;28;20236;-61
2022/05/11 13:16:50;;;;;;;5.53;3.40;;;7.10;99.90;;;;;;5066883;28;20221;-62
2022/05/11 13:19:26;;;;;;;6.70;3.95;;;7.30;99.90;;;;;;5065471;28;20202;-62
2022/05/11 13:21:59;;;;;;;4.25;3.83;;;7.40;99.90;;;;;;5064137;28;20202;-62
2022/05/11 13:24:45;;;;;;;4.75;3.63;;;7.50;99.90;;;;;;5062440;28;20202;-62
2022/05/11 13:27:43;;;;;;;3.70;3.50;;;7.70;99.90;;;;;;5065171;28;20190;-62
2022/05/11 13:30:20;;;;;;;19.52;4.20;;;7.80;99.90;;;;;;5018422;28;20441;-61
2022/05/11 13:32:53;;;;;;;5.07;3.95;;;8.00;99.90;;;;;;5019995;28;20199;-61
2022/05/11 13:35:30;;;;;;;3.42;3.05;;;8.10;99.90;;;;;;5020121;28;20235;-62
2022/05/11 13:38:16;;;;;;;5.13;3.95;;;8.20;99.90;;;;;;5020570;28;20221;-62
2022/05/11 13:41:00;;;;;;;3.55;3.22;;;8.30;99.90;;;;;;5021014;28;20218;-61
2022/05/11 13:43:32;;;;;;;4.28;3.78;;;8.50;99.90;;;;;;5020785;28;20209;-61
2022/05/11 13:46:06;;;;;;;4.68;3.95;;;8.60;99.90;;;;;;5006272;28;20199;-61
2022/05/11 13:48:39;;;;;;;4.50;3.53;;;8.80;99.90;;;;;;5021767;28;20242;-62
2022/05/11 13:51:20;;;;;;;3.47;3.17;;;9.00;99.90;;;;;;5022452;28;20200;-61
2022/05/11 13:53:53;;;;;;;5.40;3.90;;;9.20;99.90;;;;;;5016474;28;20211;-61
2022/05/11 13:56:28;;;;;;;3.65;3.35;;;9.30;99.90;;;;;;5021795;28;20595;-61
2022/05/11 13:59:16;;;;;;;3.77;3.13;;;9.60;99.90;;;;;;5021070;28;20218;-61
2022/05/11 14:01:47;;;;;;;4.10;2.80;;;9.70;99.90;;;;;;5007082;28;20473;-62
2022/05/11 14:04:24;;;;;;;4.03;3.57;;;10.00;99.90;;;;;;5020898;28;20454;-61
2022/05/11 14:06:59;;;;;;;3.70;3.40;;;10.10;99.90;;;;;;5058492;28;20452;-62
2022/05/11 14:09:32;;;;;;;3.73;3.43;;;10.10;99.90;;;;;;5062822;28;20503;-62
2022/05/11 14:12:05;;;;;;;4.43;3.60;;;10.10;99.90;;;;;;5063693;28;20459;-61
2022/05/11 14:14:36;;;;;;;3.40;3.10;;;10.10;99.90;;;;;;5062678;28;20507;-62
2022/05/11 14:17:16;;;;;;;5.10;3.70;;;10.10;99.90;;;;;;5063220;28;20489;-62
2022/05/11 14:19:47;;;;;;;3.87;3.57;;;10.20;99.90;;;;;;5063446;28;20812;-62